Time;durP1;ratioP1;P1;durP2;ratioP2;P2;SDS_P1;SDS_P2;PMS_P1;PMS_P2;Temp;Humidity;BMP_temperature;BMP_pressure;BME280_temperature;BME280_humidity;BME280_pressure;Samples;Min_cycle;Max_cycle;Signal;HPM_P1;HPM_P2
2022/05/17 00:00:00;;;;;;;4.70;3.17;;;;;;;17.74;67.16;99949.03;342057;28;1164;-74
2022/05/17 00:00:13;;;;;;;4.53;3.22;;;;;;;17.74;67.23;99944.63;342143;28;1107;-74
2022/05/17 00:00:25;;;;;;;5.55;3.60;;;;;;;17.74;67.21;99944.63;341988;28;1018;-74
2022/05/17 00:00:37;;;;;;;5.53;3.58;;;;;;;17.74;66.93;99946.41;341983;28;1048;-74
2022/05/17 00:00:49;;;;;;;5.80;3.42;;;;;;;17.73;67.36;99944.75;341944;28;1035;-74
2022/05/17 00:01:02;;;;;;;5.57;3.17;;;;;;;17.73;67.50;99950.00;341994;28;1028;-74
2022/05/17 00:01:14;;;;;;;6.03;3.30;;;;;;;17.72;67.55;99953.53;342013;28;1093;-74
2022/05/17 00:01:26;;;;;;;6.55;3.47;;;;;;;17.70;67.35;99947.53;342228;28;1052;-74
2022/05/17 00:01:38;;;;;;;7.38;3.35;;;;;;;17.72;67.30;99948.28;342101;28;1175;-74
2022/05/17 00:01:51;;;;;;;6.65;3.33;;;;;;;17.70;67.34;99947.53;342144;28;1095;-74
2022/05/17 00:02:06;;;;;;;9.63;3.55;;;;;;;17.71;67.28;99941.34;342099;28;1182;-74
2022/05/17 00:02:19;;;;;;;8.43;3.70;;;;;;;17.71;67.42;99946.59;340690;29;982;-74
2022/05/17 00:02:31;;;;;;;5.82;3.65;;;;;;;17.72;67.26;99943.03;340822;29;1245;-74
2022/05/17 00:02:43;;;;;;;5.20;3.35;;;;;;;17.72;67.36;99945.66;340721;29;1061;-74
2022/05/17 00:02:55;;;;;;;5.30;3.40;;;;;;;17.71;67.72;99951.88;340701;29;1044;-74
2022/05/17 00:03:07;;;;;;;5.07;3.30;;;;;;;17.72;67.38;99943.03;340717;29;1126;-74
2022/05/17 00:03:19;;;;;;;5.35;3.40;;;;;;;17.73;67.28;99947.38;340575;29;1911;-74
2022/05/17 00:03:32;;;;;;;6.65;3.42;;;;;;;17.73;67.41;99956.09;339671;29;778;-74
2022/05/17 00:03:44;;;;;;;6.78;3.25;;;;;;;17.69;67.36;99948.47;339353;29;1048;-74
2022/05/17 00:03:58;;;;;;;6.90;3.22;;;;;;;17.67;67.60;99950.34;338450;29;1223;-74
2022/05/17 00:04:11;;;;;;;6.03;3.47;;;;;;;17.68;67.39;99947.59;338157;29;1224;-74
2022/05/17 00:04:23;;;;;;;4.65;3.47;;;;;;;17.68;67.57;99944.13;338943;29;1093;-74
2022/05/17 00:04:36;;;;;;;4.45;3.33;;;;;;;17.68;67.66;99952.03;339655;29;1882;-74
2022/05/17 00:04:48;;;;;;;5.65;3.03;;;;;;;17.71;67.47;99951.88;339090;29;1051;-74
2022/05/17 00:05:00;;;;;;;6.13;3.17;;;;;;;17.72;67.36;99948.28;339109;29;969;-75
2022/05/17 00:05:13;;;;;;;4.90;3.20;;;;;;;17.72;67.57;99945.66;340362;29;1056;-75
2022/05/17 00:05:27;;;;;;;4.45;3.17;;;;;;;17.72;67.36;99943.03;341052;29;904;-75
2022/05/17 00:05:39;;;;;;;4.35;3.20;;;;;;;17.73;67.42;99944.75;341931;28;1012;-74
2022/05/17 00:05:52;;;;;;;4.70;3.42;;;;;;;17.72;67.30;99953.53;341026;29;984;-74
2022/05/17 00:06:05;;;;;;;6.15;3.65;;;;;;;17.72;67.50;99948.28;342018;28;1213;-74
2022/05/17 00:06:18;;;;;;;5.85;3.25;;;;;;;17.72;67.41;99948.28;342015;28;1044;-74
2022/05/17 00:06:30;;;;;;;5.30;3.33;;;;;;;17.72;67.53;99948.28;342014;28;1273;-74
2022/05/17 00:06:42;;;;;;;5.85;3.50;;;;;;;17.71;67.57;99946.59;342139;28;1047;-74
2022/05/17 00:06:55;;;;;;;5.50;3.42;;;;;;;17.71;67.70;99951.88;342142;28;1035;-74
2022/05/17 00:07:07;;;;;;;5.35;3.33;;;;;;;17.71;67.78;99951.88;340657;29;1191;-74
2022/05/17 00:07:19;;;;;;;6.22;3.47;;;;;;;17.69;68.01;99943.22;340511;29;1052;-74
2022/05/17 00:07:31;;;;;;;6.10;3.50;;;;;;;17.71;67.70;99947.44;340530;29;1271;-74
2022/05/17 00:07:43;;;;;;;6.30;3.63;;;;;;;17.71;68.10;99949.25;339471;29;1052;-74
2022/05/17 00:07:55;;;;;;;6.30;3.47;;;;;;;17.73;68.22;99944.75;338807;29;1109;-74
2022/05/17 00:08:08;;;;;;;5.95;3.50;;;;;;;17.72;67.94;99943.03;339461;29;1374;-74
2022/05/17 00:08:20;;;;;;;5.95;3.38;;;;;;;17.73;68.01;99947.38;339366;29;1033;-74
2022/05/17 00:08:33;;;;;;;5.80;3.45;;;;;;;17.73;67.84;99950.84;339499;29;1064;-74
2022/05/17 00:08:45;;;;;;;6.70;3.47;;;;;;;17.72;68.25;99953.53;338178;29;1225;-74
2022/05/17 00:08:58;;;;;;;6.35;3.83;;;;;;;17.69;68.18;99948.47;338292;29;1186;-74
2022/05/17 00:09:10;;;;;;;6.70;3.83;;;;;;;17.70;68.15;99950.16;338041;29;1166;-74
2022/05/17 00:09:22;;;;;;;5.85;3.60;;;;;;;17.69;68.17;99948.47;338118;29;1027;-74
2022/05/17 00:09:34;;;;;;;5.00;3.47;;;;;;;17.68;68.48;99946.78;338732;29;1202;-75
2022/05/17 00:09:46;;;;;;;5.18;3.67;;;;;;;17.69;68.02;99951.09;338000;29;1032;-74
2022/05/17 00:09:58;;;;;;;5.38;3.72;;;;;;;17.71;68.22;99949.25;338556;29;1223;-74
2022/05/17 00:10:11;;;;;;;7.18;3.60;;;;;;;17.70;68.30;99943.09;338114;29;1257;-74
2022/05/17 00:10:25;;;;;;;7.07;3.63;;;;;;;17.70;67.93;99939.66;338654;29;1065;-74
2022/05/17 00:10:38;;;;;;;5.68;3.83;;;;;;;17.72;68.13;99948.28;339377;29;1224;-75
2022/05/17 00:10:50;;;;;;;5.00;3.45;;;;;;;17.72;67.91;99945.66;340517;29;1036;-74
2022/05/17 00:11:02;;;;;;;5.00;3.30;;;;;;;17.72;67.92;99953.53;340633;29;1170;-74
2022/05/17 00:11:15;;;;;;;5.15;3.20;;;;;;;17.73;67.97;99939.47;340905;29;1071;-74
2022/05/17 00:11:28;;;;;;;5.55;3.50;;;;;;;17.72;68.02;99943.88;340846;29;909;-74
2022/05/17 00:11:40;;;;;;;5.15;3.42;;;;;;;17.74;67.96;99941.16;341394;29;776;-74
2022/05/17 00:11:52;;;;;;;6.00;3.30;;;;;;;17.72;67.82;99937.78;341038;29;1036;-74
2022/05/17 00:12:05;;;;;;;5.80;3.28;;;;;;;17.73;67.76;99947.38;340872;29;1273;-74
2022/05/17 00:12:17;;;;;;;5.07;3.45;;;;;;;17.73;67.52;99953.47;341943;28;1052;-74
2022/05/17 00:12:29;;;;;;;4.85;3.45;;;;;;;17.74;68.02;99943.78;342286;28;1004;-74
2022/05/17 00:12:41;;;;;;;5.05;3.47;;;;;;;17.71;68.35;99943.97;342131;28;1102;-74
2022/05/17 00:12:54;;;;;;;6.68;3.70;;;;;;;17.71;68.41;99951.88;342588;28;989;-74
2022/05/17 00:13:06;;;;;;;7.47;3.67;;;;;;;17.73;68.06;99939.47;342272;28;1044;-74
2022/05/17 00:13:18;;;;;;;7.95;3.53;;;;;;;17.73;68.20;99950.00;341541;28;1022;-74
2022/05/17 00:13:30;;;;;;;6.47;3.45;;;;;;;17.71;68.15;99947.44;342041;28;1353;-74
2022/05/17 00:13:43;;;;;;;7.07;3.50;;;;;;;17.72;68.06;99943.03;342315;28;1007;-74
2022/05/17 00:13:55;;;;;;;7.50;3.50;;;;;;;17.73;67.80;99950.84;342290;28;1063;-74
2022/05/17 00:14:08;;;;;;;8.20;3.38;;;;;;;17.71;67.80;99950.06;342589;28;940;-74
2022/05/17 00:14:20;;;;;;;6.47;3.33;;;;;;;17.72;67.72;99953.53;342162;28;1145;-74
2022/05/17 00:14:32;;;;;;;5.95;3.40;;;;;;;17.71;67.78;99938.72;342337;28;1154;-74
2022/05/17 00:14:44;;;;;;;5.70;3.58;;;;;;;17.73;67.83;99950.00;342197;28;1165;-74
2022/05/17 00:14:56;;;;;;;5.10;3.42;;;;;;;17.73;67.75;99947.38;342524;28;1277;-74
2022/05/17 00:15:09;;;;;;;5.30;3.25;;;;;;;17.72;67.73;99943.88;342415;28;1123;-74
2022/05/17 00:15:21;;;;;;;6.15;3.30;;;;;;;17.72;67.76;99949.13;342209;28;1078;-74
2022/05/17 00:15:35;;;;;;;6.22;3.45;;;;;;;17.74;67.78;99946.41;342084;28;1318;-74
2022/05/17 00:15:51;;;;;;;6.25;3.50;;;;;;;17.73;67.30;99950.84;342205;28;1080;-74
2022/05/17 00:16:04;;;;;;;7.10;3.53;;;;;;;17.73;67.59;99944.75;342363;28;1053;-75
2022/05/17 00:16:16;;;;;;;6.38;3.50;;;;;;;17.72;67.45;99943.88;342620;28;798;-75
2022/05/17 00:16:29;;;;;;;5.85;3.65;;;;;;;17.73;67.47;99950.00;342419;28;1208;-74
2022/05/17 00:16:42;;;;;;;6.68;3.53;;;;;;;17.72;67.62;99954.38;342618;28;1182;-74
2022/05/17 00:16:55;;;;;;;7.57;3.55;;;;;;;17.73;67.37;99944.75;342435;28;1087;-74
2022/05/17 00:17:09;;;;;;;7.03;3.60;;;;;;;17.72;67.28;99945.66;340921;29;1044;-74
2022/05/17 00:17:21;;;;;;;6.57;3.50;;;;;;;17.71;67.50;99947.44;341411;29;787;-74
2022/05/17 00:17:34;;;;;;;5.07;3.33;;;;;;;17.69;68.00;99949.31;340914;29;1068;-74
2022/05/17 00:17:48;;;;;;;4.72;3.28;;;;;;;17.69;67.92;99948.47;340987;29;1073;-74
2022/05/17 00:18:02;;;;;;;4.25;3.40;;;;;;;17.69;67.75;99945.84;341070;29;1072;-74
2022/05/17 00:18:16;;;;;;;5.47;3.70;;;;;;;17.70;67.99;99947.53;340958;28;995;-74
2022/05/17 00:18:29;;;;;;;6.03;3.75;;;;;;;17.71;67.66;99946.59;340940;29;1119;-74
2022/05/17 00:18:42;;;;;;;4.38;3.50;;;;;;;17.72;67.54;99953.53;340978;29;1166;-74
2022/05/17 00:18:54;;;;;;;4.35;3.40;;;;;;;17.73;67.37;99955.25;340911;29;1167;-74
2022/05/17 00:19:08;;;;;;;5.68;3.60;;;;;;;17.75;67.77;99953.38;341098;28;1092;-74
2022/05/17 00:19:21;;;;;;;5.68;3.47;;;;;;;17.75;67.46;99948.13;342127;28;1097;-74
2022/05/17 00:19:33;;;;;;;6.20;3.28;;;;;;;17.74;67.62;99951.69;342447;28;900;-74
2022/05/17 00:19:45;;;;;;;6.30;3.50;;;;;;;17.75;67.46;99943.72;342136;28;1084;-74
2022/05/17 00:19:57;;;;;;;6.45;3.65;;;;;;;17.75;67.42;99953.38;341326;29;952;-74
2022/05/17 00:20:10;;;;;;;6.05;3.58;;;;;;;17.75;67.32;99948.13;340995;29;1100;-74
2022/05/17 00:20:24;;;;;;;5.70;3.22;;;;;;;17.75;67.28;99948.13;341046;29;1253;-75
2022/05/17 00:20:36;;;;;;;6.53;3.38;;;;;;;17.75;67.44;99956.00;341966;28;1163;-75
2022/05/17 00:20:48;;;;;;;6.53;3.38;;;;;;;17.74;67.79;99951.69;342334;28;1117;-74
2022/05/17 00:21:00;;;;;;;4.85;3.35;;;;;;;17.74;67.43;99956.94;342256;28;1162;-73
2022/05/17 00:21:13;;;;;;;4.90;3.25;;;;;;;17.75;67.46;99948.13;340924;29;1068;-73
2022/05/17 00:21:25;;;;;;;5.53;3.30;;;;;;;17.73;67.64;99956.09;340908;29;1087;-74
2022/05/17 00:21:38;;;;;;;5.25;3.40;;;;;;;17.72;67.47;99953.53;340954;29;1095;-74
2022/05/17 00:21:51;;;;;;;5.40;3.53;;;;;;;17.73;67.62;99947.38;339624;29;1108;-74
2022/05/17 00:22:03;;;;;;;5.18;3.47;;;;;;;17.73;67.68;99952.63;341043;29;849;-74
2022/05/17 00:22:15;;;;;;;4.95;3.30;;;;;;;17.72;67.58;99948.28;340967;29;1047;-74
2022/05/17 00:22:27;;;;;;;5.07;3.45;;;;;;;17.71;67.54;99950.06;341214;29;1166;-74
2022/05/17 00:22:41;;;;;;;4.50;3.50;;;;;;;17.69;68.04;99951.09;340940;29;1267;-74
2022/05/17 00:22:53;;;;;;;3.92;3.45;;;;;;;17.69;67.85;99959.00;341096;29;1180;-74
2022/05/17 00:23:07;;;;;;;5.68;3.22;;;;;;;17.69;67.75;99954.56;341218;29;1116;-74
2022/05/17 00:23:20;;;;;;;8.10;3.47;;;;;;;17.68;67.90;99952.03;342162;28;1028;-74
2022/05/17 00:23:33;;;;;;;6.50;3.30;;;;;;;17.68;67.98;99952.03;342056;28;1064;-74
2022/05/17 00:23:45;;;;;;;5.05;3.28;;;;;;;17.65;68.26;99952.22;342651;28;784;-74
2022/05/17 00:23:57;;;;;;;4.80;3.30;;;;;;;17.64;68.03;99950.50;342038;28;1055;-74
2022/05/17 00:24:09;;;;;;;5.50;3.40;;;;;;;17.65;68.02;99941.72;342278;28;1113;-74
2022/05/17 00:24:24;;;;;;;6.47;3.63;;;;;;;17.64;67.80;99946.09;342007;28;1160;-74
2022/05/17 00:24:37;;;;;;;5.85;3.80;;;;;;;17.64;67.71;99955.78;342057;28;1068;-74
2022/05/17 00:24:49;;;;;;;6.32;3.85;;;;;;;17.63;67.67;99949.66;341965;28;1027;-74
2022/05/17 00:25:02;;;;;;;5.80;3.70;;;;;;;17.63;67.68;99948.84;340940;29;1326;-74
2022/05/17 00:25:16;;;;;;;4.57;3.58;;;;;;;17.59;67.97;99945.53;340714;29;1044;-74
2022/05/17 00:25:29;;;;;;;5.22;3.60;;;;;;;17.60;68.31;99955.09;340878;29;1238;-74
2022/05/17 00:25:44;;;;;;;5.13;3.53;;;;;;;17.61;67.80;99951.53;339630;29;1092;-74
2022/05/17 00:25:56;;;;;;;4.53;3.40;;;;;;;17.64;67.77;99955.78;340898;29;1084;-74
2022/05/17 00:26:09;;;;;;;5.47;3.40;;;;;;;17.64;67.67;99953.13;340816;29;1233;-74
2022/05/17 00:26:21;;;;;;;5.93;3.25;;;;;;;17.62;67.72;99955.00;340770;29;1203;-74
2022/05/17 00:26:33;;;;;;;5.07;3.22;;;;;;;17.61;67.75;99953.34;341203;29;944;-74
2022/05/17 00:26:45;;;;;;;4.72;3.45;;;;;;;17.61;67.54;99945.44;340887;29;1129;-74
2022/05/17 00:26:57;;;;;;;5.32;3.40;;;;;;;17.61;67.65;99956.81;341256;29;1686;-74
2022/05/17 00:27:10;;;;;;;5.15;3.28;;;;;;;17.61;67.82;99951.53;342368;28;1107;-74
2022/05/17 00:27:22;;;;;;;4.63;3.22;;;;;;;17.61;67.60;99950.72;342276;28;1259;-74
2022/05/17 00:27:34;;;;;;;4.85;3.40;;;;;;;17.61;67.75;99950.72;342354;28;1063;-74
2022/05/17 00:27:46;;;;;;;4.97;3.40;;;;;;;17.60;67.94;99949.84;342332;28;1502;-74
2022/05/17 00:27:59;;;;;;;6.03;3.58;;;;;;;17.58;67.88;99957.78;342525;28;1246;-74
2022/05/17 00:28:13;;;;;;;5.82;3.60;;;;;;;17.58;67.92;99952.53;342631;28;1039;-74
2022/05/17 00:28:27;;;;;;;5.72;3.65;;;;;;;17.57;67.96;99950.88;342373;28;1148;-74
2022/05/17 00:28:39;;;;;;;6.75;3.75;;;;;;;17.56;67.81;99957.03;342442;28;1092;-74
2022/05/17 00:28:51;;;;;;;6.55;3.50;;;;;;;17.56;68.03;99950.94;342599;28;1047;-74
2022/05/17 00:29:04;;;;;;;7.18;3.60;;;;;;;17.55;68.04;99955.38;342484;28;1119;-74
2022/05/17 00:29:16;;;;;;;6.13;3.50;;;;;;;17.54;68.10;99952.81;342486;28;1150;-74
2022/05/17 00:29:29;;;;;;;5.47;3.60;;;;;;;17.53;68.11;99954.59;342320;28;1023;-74
2022/05/17 00:29:41;;;;;;;4.35;3.33;;;;;;;17.54;67.97;99956.28;341449;28;1123;-74
2022/05/17 00:29:53;;;;;;;4.55;3.28;;;;;;;17.54;67.93;99950.19;341157;29;1080;-74
2022/05/17 00:30:06;;;;;;;5.90;3.28;;;;;;;17.53;67.77;99954.59;341030;29;971;-74
2022/05/17 00:30:18;;;;;;;7.28;3.50;;;;;;;17.52;67.79;99950.25;341134;29;1218;-74
2022/05/17 00:30:31;;;;;;;7.63;3.55;;;;;;;17.52;68.08;99950.25;341154;29;1117;-74
2022/05/17 00:30:43;;;;;;;6.60;3.42;;;;;;;17.51;68.33;99945.97;341159;29;1594;-74
2022/05/17 00:30:56;;;;;;;6.32;3.88;;;;;;;17.50;68.31;99952.13;341205;29;1662;-74
2022/05/17 00:31:08;;;;;;;6.43;3.92;;;;;;;17.48;68.66;99955.78;341141;29;1073;-74
2022/05/17 00:31:21;;;;;;;6.80;3.88;;;;;;;17.46;68.53;99947.97;341730;28;1152;-74
2022/05/17 00:31:34;;;;;;;6.32;3.70;;;;;;;17.48;68.62;99955.78;342240;28;1024;-74
2022/05/17 00:31:47;;;;;;;6.82;3.83;;;;;;;17.45;68.41;99948.94;342162;28;1262;-74
2022/05/17 00:32:00;;;;;;;8.10;4.00;;;;;;;17.43;68.41;99956.06;342061;28;1057;-74
2022/05/17 00:32:12;;;;;;;7.60;3.95;;;;;;;17.44;68.20;99951.63;342028;28;1259;-74
2022/05/17 00:32:24;;;;;;;5.93;3.72;;;;;;;17.44;68.25;99947.22;341995;28;1148;-74
2022/05/17 00:32:36;;;;;;;5.45;3.50;;;;;;;17.45;68.19;99954.19;342299;28;1055;-74
2022/05/17 00:32:48;;;;;;;5.05;3.30;;;;;;;17.46;68.42;99940.09;342142;28;1040;-74
2022/05/17 00:33:00;;;;;;;6.00;3.47;;;;;;;17.45;68.53;99946.31;342166;28;1276;-74
2022/05/17 00:33:13;;;;;;;7.75;3.60;;;;;;;17.46;68.52;99950.63;341146;29;1095;-74
2022/05/17 00:33:25;;;;;;;8.40;3.60;;;;;;;17.47;68.32;99948.84;340725;29;1047;-75
2022/05/17 00:33:37;;;;;;;8.10;3.30;;;;;;;17.49;68.04;99942.56;340880;29;1282;-74
2022/05/17 00:33:49;;;;;;;7.68;3.35;;;;;;;17.47;68.41;99949.69;340845;29;1283;-74
2022/05/17 00:34:06;;;;;;;7.15;3.60;;;;;;;17.46;68.43;99942.72;340843;29;1052;-74
2022/05/17 00:34:18;;;;;;;6.47;3.65;;;;;;;17.46;68.32;99952.41;340876;29;1188;-74
2022/05/17 00:34:31;;;;;;;5.38;3.47;;;;;;;17.45;68.26;99948.09;340920;29;1185;-74
2022/05/17 00:34:46;;;;;;;5.13;3.33;;;;;;;17.46;68.14;99949.78;340797;29;1237;-74
2022/05/17 00:34:58;;;;;;;6.25;3.35;;;;;;;17.45;68.23;99946.31;340814;28;1284;-74
2022/05/17 00:35:11;;;;;;;7.60;3.60;;;;;;;17.47;68.21;99948.84;340940;29;1092;-74
2022/05/17 00:35:23;;;;;;;8.82;3.63;;;;;;;17.46;68.00;99947.97;339540;29;1113;-74
2022/05/17 00:35:35;;;;;;;7.80;3.50;;;;;;;17.47;67.92;99948.84;339663;29;1052;-74
2022/05/17 00:35:48;;;;;;;5.68;3.35;;;;;;;17.47;68.22;99954.09;338590;29;984;-74
2022/05/17 00:36:01;;;;;;;5.25;3.25;;;;;;;17.47;68.13;99949.69;338418;29;1311;-74
2022/05/17 00:36:13;;;;;;;4.97;3.33;;;;;;;17.46;68.33;99950.63;339383;29;1054;-74
2022/05/17 00:36:26;;;;;;;4.70;3.53;;;;;;;17.45;68.48;99946.31;340731;29;1077;-74
2022/05/17 00:36:38;;;;;;;5.72;3.63;;;;;;;17.45;68.56;99951.56;339741;29;1089;-74
2022/05/17 00:36:50;;;;;;;5.97;3.53;;;;;;;17.46;68.52;99947.16;339788;29;1222;-74
2022/05/17 00:37:02;;;;;;;5.85;3.55;;;;;;;17.43;68.63;99948.19;339823;29;1668;-74
2022/05/17 00:37:15;;;;;;;5.30;3.60;;;;;;;17.43;68.38;99952.59;339506;29;1186;-74
2022/05/17 00:37:27;;;;;;;5.80;3.65;;;;;;;17.41;68.78;99947.41;340499;29;1095;-74
2022/05/17 00:37:39;;;;;;;7.03;3.67;;;;;;;17.44;68.42;99949.00;340893;29;1161;-74
2022/05/17 00:37:51;;;;;;;6.38;3.65;;;;;;;17.45;68.29;99951.56;340967;29;1196;-74
2022/05/17 00:38:03;;;;;;;5.43;3.75;;;;;;;17.45;68.29;99956.81;339729;29;1072;-74
2022/05/17 00:38:16;;;;;;;4.75;3.50;;;;;;;17.45;68.31;99951.56;339490;29;1041;-74
2022/05/17 00:38:28;;;;;;;4.40;3.13;;;;;;;17.46;68.18;99950.63;339720;29;1050;-74
2022/05/17 00:38:40;;;;;;;5.18;3.33;;;;;;;17.45;67.96;99946.31;340323;29;1056;-74
2022/05/17 00:38:52;;;;;;;4.80;3.22;;;;;;;17.46;67.88;99950.63;340929;29;1139;-74
2022/05/17 00:39:04;;;;;;;4.15;3.10;;;;;;;17.46;68.27;99947.97;341325;29;881;-74
2022/05/17 00:39:17;;;;;;;4.72;3.05;;;;;;;17.46;68.20;99947.97;340930;29;1262;-74
2022/05/17 00:39:29;;;;;;;5.70;3.30;;;;;;;17.45;68.06;99951.56;339812;29;1057;-74
2022/05/17 00:39:42;;;;;;;6.30;3.35;;;;;;;17.46;68.18;99942.72;339562;29;1390;-74
2022/05/17 00:39:54;;;;;;;7.57;3.50;;;;;;;17.47;68.05;99946.22;339615;29;1109;-74
2022/05/17 00:40:08;;;;;;;7.05;3.30;;;;;;;17.47;67.99;99951.47;340174;29;1305;-74
2022/05/17 00:40:20;;;;;;;5.10;3.22;;;;;;;17.47;68.13;99941.81;341606;28;1231;-74
2022/05/17 00:40:32;;;;;;;4.85;3.40;;;;;;;17.47;68.23;99949.69;341959;28;1195;-74
2022/05/17 00:40:49;;;;;;;4.88;3.30;;;;;;;17.47;68.21;99949.69;342157;28;1119;-74
2022/05/17 00:41:01;;;;;;;5.18;3.28;;;;;;;17.48;68.29;99943.47;342200;28;1148;-74
2022/05/17 00:41:13;;;;;;;5.25;3.50;;;;;;;17.48;68.22;99943.47;342571;28;1199;-74
2022/05/17 00:41:26;;;;;;;5.30;3.30;;;;;;;17.46;68.26;99945.34;341948;28;1168;-74
2022/05/17 00:41:38;;;;;;;5.75;3.40;;;;;;;17.46;68.27;99942.72;342361;28;1042;-74
2022/05/17 00:41:50;;;;;;;6.13;3.42;;;;;;;17.44;68.27;99944.59;342428;28;1051;-74
2022/05/17 00:42:02;;;;;;;6.10;3.38;;;;;;;17.46;68.18;99941.88;342579;28;1089;-74
2022/05/17 00:42:14;;;;;;;4.97;3.20;;;;;;;17.46;68.00;99947.97;342288;28;1063;-74
2022/05/17 00:42:26;;;;;;;5.57;3.30;;;;;;;17.46;67.93;99947.97;342233;28;1238;-74
2022/05/17 00:42:38;;;;;;;6.10;3.60;;;;;;;17.47;67.85;99944.44;342223;28;1092;-74
2022/05/17 00:42:51;;;;;;;7.10;3.67;;;;;;;17.47;67.84;99949.69;342362;28;1071;-74
2022/05/17 00:43:06;;;;;;;6.95;3.80;;;;;;;17.46;67.70;99942.72;342229;28;1099;-74
2022/05/17 00:43:28;;;;;;;6.03;3.70;;;;;;;17.47;67.67;99944.44;342250;28;1084;-74
2022/05/17 00:44:45;;;;;;;5.18;3.65;;;;;;;17.47;67.56;99943.59;342097;28;1047;-74
2022/05/17 00:44:58;;;;;;;6.60;3.40;;;;;;;17.47;67.50;99939.19;342116;28;1310;-74
2022/05/17 00:45:11;;;;;;;6.80;3.35;;;;;;;17.47;67.51;99941.81;342159;28;1089;-74
2022/05/17 00:45:23;;;;;;;6.35;3.65;;;;;;;17.46;67.69;99940.09;342231;28;1017;-74
2022/05/17 00:45:39;;;;;;;6.93;3.88;;;;;;;17.44;68.07;99939.34;342193;28;1043;-74
2022/05/17 00:45:53;;;;;;;5.38;3.50;;;;;;;17.43;68.45;99944.72;342388;28;1010;-74
2022/05/17 00:46:05;;;;;;;4.60;3.38;;;;;;;17.42;68.39;99935.94;342783;28;941;-74
2022/05/17 00:46:20;;;;;;;5.10;3.60;;;;;;;17.42;68.03;99941.22;342438;28;1064;-74
2022/05/17 00:46:47;;;;;;;5.45;3.58;;;;;;;17.41;68.11;99944.78;342254;28;993;-74
2022/05/17 00:47:12;;;;;;;5.95;3.40;;;;;;;17.44;67.99;99941.97;342356;28;976;-74
2022/05/17 00:47:28;;;;;;;6.35;3.17;;;;;;;17.42;68.30;99937.75;342370;28;1204;-74
2022/05/17 00:48:06;;;;;;;5.13;3.15;;;;;;;17.44;67.83;99944.59;342454;28;1099;-74
2022/05/17 00:48:19;;;;;;;6.43;3.58;;;;;;;17.44;67.72;99939.34;342635;28;851;-74
2022/05/17 00:48:32;;;;;;;7.80;3.55;;;;;;;17.46;67.78;99947.16;342194;28;1039;-74
2022/05/17 00:48:44;;;;;;;6.47;3.33;;;;;;;17.45;67.74;99938.41;342239;28;1204;-74
2022/05/17 00:48:58;;;;;;;5.68;3.30;;;;;;;17.46;68.00;99936.63;342264;28;1077;-74
2022/05/17 00:49:15;;;;;;;6.22;3.25;;;;;;;17.43;67.59;99937.66;342174;28;1067;-74
2022/05/17 00:49:45;;;;;;;7.38;3.58;;;;;;;17.39;68.07;99946.66;342310;28;1265;-74
2022/05/17 00:50:05;;;;;;;8.00;3.60;;;;;;;17.38;68.28;99942.31;342343;28;1115;-74
2022/05/17 00:50:38;;;;;;;6.13;3.40;;;;;;;17.33;68.59;99941.75;342140;28;1062;-74
2022/05/17 00:50:53;;;;;;;6.40;3.63;;;;;;;17.31;67.89;99943.59;341131;28;971;-74
2022/05/17 00:51:05;;;;;;;7.97;3.72;;;;;;;17.30;68.36;99937.47;341296;28;1051;-74
2022/05/17 00:51:17;;;;;;;7.13;3.50;;;;;;;17.29;68.29;99941.06;341038;28;1033;-74
2022/05/17 00:51:30;;;;;;;6.40;3.70;;;;;;;17.30;68.37;99947.16;341210;28;1181;-74
2022/05/17 00:51:43;;;;;;;6.10;3.78;;;;;;;17.31;68.53;99944.44;341230;28;1212;-74
2022/05/17 00:52:01;;;;;;;5.72;3.70;;;;;;;17.31;68.58;99943.59;341157;28;1122;-74
2022/05/17 00:52:36;;;;;;;6.38;3.55;;;;;;;17.30;68.33;99942.75;341196;28;1022;-74
2022/05/17 00:52:59;;;;;;;5.35;3.63;;;;;;;17.30;68.51;99941.91;341350;29;852;-74
2022/05/17 00:53:18;;;;;;;4.28;3.58;;;;;;;17.31;68.42;99943.59;340829;29;1221;-74
2022/05/17 00:53:34;;;;;;;5.47;3.47;;;;;;;17.32;68.33;99940.03;340533;29;1180;-74
2022/05/17 00:53:46;;;;;;;6.95;3.65;;;;;;;17.33;68.13;99937.31;340731;29;1083;-74
2022/05/17 00:54:06;;;;;;;7.03;3.85;;;;;;;17.32;68.26;99938.25;341164;29;1499;-74
2022/05/17 00:54:18;;;;;;;4.95;3.40;;;;;;;17.32;68.58;99940.03;340559;29;1049;-74
2022/05/17 00:54:32;;;;;;;5.78;3.25;;;;;;;17.30;68.54;99936.66;339631;29;1278;-74
2022/05/17 00:54:45;;;;;;;6.85;3.47;;;;;;;17.28;68.63;99941.97;339588;29;1169;-74
2022/05/17 00:55:02;;;;;;;6.38;3.58;;;;;;;17.28;68.57;99943.75;340783;28;1248;-74
2022/05/17 00:55:17;;;;;;;5.13;3.35;;;;;;;17.29;68.69;99941.06;339323;29;1145;-74
2022/05/17 00:55:55;;;;;;;6.32;3.70;;;;;;;17.27;68.40;99947.34;339808;29;1116;-73
2022/05/17 00:56:14;;;;;;;4.72;3.50;;;;;;;17.24;68.57;99943.09;339638;29;1181;-73
2022/05/17 00:56:27;;;;;;;4.85;3.53;;;;;;;17.24;68.57;99940.44;338141;29;1267;-74
2022/05/17 00:56:52;;;;;;;6.38;3.72;;;;;;;17.24;68.11;99942.25;338560;29;798;-73
2022/05/17 00:57:12;;;;;;;5.15;3.72;;;;;;;17.25;68.06;99939.53;338695;29;856;-73
2022/05/17 00:58:01;;;;;;;7.40;3.22;;;;;;;17.28;67.90;99943.75;338324;29;1037;-73
2022/05/17 00:58:13;;;;;;;6.47;3.47;;;;;;;17.29;67.59;99940.22;338268;29;1339;-73
2022/05/17 00:58:40;;;;;;;5.22;3.58;;;;;;;17.30;67.53;99941.91;339106;29;1020;-73
2022/05/17 00:58:58;;;;;;;5.90;3.88;;;;;;;17.31;67.57;99938.34;340860;29;1219;-74
2022/05/17 00:59:12;;;;;;;5.28;3.40;;;;;;;17.32;67.46;99942.66;340992;29;1198;-73
2022/05/17 00:59:25;;;;;;;4.05;3.10;;;;;;;17.32;67.55;99935.63;341119;29;1076;-73
2022/05/17 00:59:37;;;;;;;4.95;3.30;;;;;;;17.32;67.43;99940.03;341206;28;1071;-73
2022/05/17 00:59:50;;;;;;;6.28;3.60;;;;;;;17.33;67.63;99941.75;341245;28;1173;-73
2022/05/17 01:00:07;;;;;;;7.28;3.70;;;;;;;17.32;67.40;99945.28;341158;28;1039;-73
2022/05/17 01:00:20;;;;;;;6.20;3.47;;;;;;;17.30;67.35;99945.38;341120;28;902;-73
2022/05/17 01:00:39;;;;;;;5.70;3.42;;;;;;;17.31;67.45;99938.34;341225;28;1084;-73
2022/05/17 01:00:56;;;;;;;5.85;3.53;;;;;;;17.31;67.23;99944.44;341176;28;1266;-73
2022/05/17 01:01:18;;;;;;;7.28;3.67;;;;;;;17.31;67.28;99943.59;340947;28;1168;-73
2022/05/17 01:01:31;;;;;;;7.22;4.10;;;;;;;17.30;67.33;99939.28;341221;28;1044;-74
2022/05/17 01:01:44;;;;;;;7.15;3.95;;;;;;;17.31;67.27;99940.97;341163;28;1083;-74
2022/05/17 01:01:56;;;;;;;6.10;3.63;;;;;;;17.32;67.19;99940.88;341111;28;1531;-74
2022/05/17 01:02:11;;;;;;;4.95;3.38;;;;;;;17.32;67.07;99940.03;340928;29;1192;-74
2022/05/17 01:02:24;;;;;;;6.13;3.60;;;;;;;17.33;67.10;99941.75;341148;29;953;-74
2022/05/17 01:02:36;;;;;;;6.57;3.67;;;;;;;17.33;67.12;99947.00;340809;29;1245;-73
2022/05/17 01:02:53;;;;;;;6.93;3.53;;;;;;;17.32;67.10;99940.03;340053;29;739;-73
2022/05/17 01:03:09;;;;;;;6.85;3.55;;;;;;;17.33;67.14;99942.59;337978;29;1026;-73
2022/05/17 01:03:25;;;;;;;5.47;3.53;;;;;;;17.32;67.15;99940.03;338259;29;1243;-73
2022/05/17 01:03:57;;;;;;;4.70;3.20;;;;;;;17.35;67.11;99945.13;338694;29;1056;-73
2022/05/17 01:04:18;;;;;;;4.35;3.22;;;;;;;17.31;66.90;99948.88;339119;29;1141;-73
2022/05/17 01:04:30;;;;;;;4.20;3.10;;;;;;;17.32;66.95;99945.28;339690;29;1064;-73
2022/05/17 01:04:43;;;;;;;4.93;3.20;;;;;;;17.32;66.94;99940.03;339752;29;1191;-73
2022/05/17 01:04:55;;;;;;;5.45;3.33;;;;;;;17.33;66.55;99936.50;340764;29;1335;-73
2022/05/17 01:05:07;;;;;;;5.55;3.45;;;;;;;17.33;66.96;99949.63;341272;28;1054;-73
2022/05/17 01:05:23;;;;;;;6.53;3.67;;;;;;;17.32;66.98;99942.66;342040;28;1024;-73
2022/05/17 01:05:42;;;;;;;7.28;3.60;;;;;;;17.32;67.01;99945.28;342606;28;866;-73
2022/05/17 01:05:54;;;;;;;4.25;3.20;;;;;;;17.31;66.86;99935.72;341006;29;1053;-73
2022/05/17 01:06:07;;;;;;;5.47;3.28;;;;;;;17.32;67.00;99940.03;340791;29;1162;-73
2022/05/17 01:06:20;;;;;;;6.45;3.35;;;;;;;17.31;66.83;99938.34;340988;29;1048;-73
2022/05/17 01:06:43;;;;;;;6.43;3.38;;;;;;;17.32;66.88;99942.66;340782;29;1036;-73
2022/05/17 01:07:04;;;;;;;6.00;3.40;;;;;;;17.29;66.94;99929.72;340925;29;1048;-74
2022/05/17 01:07:20;;;;;;;5.93;3.38;;;;;;;17.27;67.05;99942.09;340613;29;946;-74
2022/05/17 01:07:40;;;;;;;7.10;3.60;;;;;;;17.25;67.16;99943.94;340831;29;1019;-74
2022/05/17 01:07:57;;;;;;;5.97;3.60;;;;;;;17.25;67.26;99938.69;341058;29;1097;-74
2022/05/17 01:08:12;;;;;;;5.78;3.70;;;;;;;17.25;67.24;99936.06;340929;28;1914;-73
2022/05/17 01:08:25;;;;;;;5.68;3.70;;;;;;;17.25;67.50;99931.66;341207;28;1023;-73
2022/05/17 01:08:37;;;;;;;5.13;3.38;;;;;;;17.25;67.43;99938.69;341087;28;1260;-73